Thonotosassa, Florida
Current Conditions -  °F | °C
As of 11:35 AM on Saturday 25 Oct 2014 (Local Time) from KPCM Reporting Station
Clear Clear  
Wind Chill: 75°   Ceiling: Unl
Heat Index: 75°   Visibility: 10mi
Dew Point: 50°   Wind: 8mph
Humidity: 41%   Direction: 30°NNE
Pressure: 30.04"   Gusts: NA
Location:  28.06°N, 82.3°W
Report Text: KPCM 251535Z AUTO 03007KT 10SM CLR 24/10 A3004 RMK AO2
Loading
Personal Weather Stations






























Interactive Weather Map
Tropical Storm Tracking
New forecast layout! Learn more

10-Day Weather Forecast

Advertisements
Track Severe Weather on mobile